createdAt,value
2023-01-22T00:00:21.995Z,7.53
2023-01-22T00:02:23.748Z,6.43
2023-01-22T00:04:25.658Z,6.80
2023-01-22T00:06:27.670Z,7.40
2023-01-22T00:08:29.369Z,6.63
2023-01-22T00:10:32.582Z,7.23
2023-01-22T00:12:35.412Z,7.13
2023-01-22T00:14:37.364Z,8.07
2023-01-22T00:16:41.392Z,7.03
2023-01-22T00:18:43.821Z,8.07
2023-01-22T00:20:49.390Z,6.63
2023-01-22T00:22:51.089Z,7.77
2023-01-22T00:24:52.731Z,6.43
2023-01-22T00:26:54.468Z,8.47
2023-01-22T00:28:56.134Z,7.87
2023-01-22T00:31:02.153Z,6.73
2023-01-22T00:33:04.755Z,7.13
2023-01-22T00:35:06.725Z,8.90
2023-01-22T00:37:08.454Z,8.70
2023-01-22T00:39:10.392Z,7.33
2023-01-22T00:41:13.182Z,7.30
2023-01-22T00:43:14.839Z,6.50
2023-01-22T00:45:16.518Z,5.30
2023-01-22T00:47:18.299Z,6.47
2023-01-22T00:49:20.005Z,7.43
2023-01-22T00:51:21.769Z,9.10
2023-01-22T00:53:23.612Z,7.27
2023-01-22T00:55:25.344Z,6.10
2023-01-22T00:57:27.115Z,7.45
2023-01-22T00:59:28.807Z,6.70
2023-01-22T01:01:30.541Z,7.97
2023-01-22T01:03:32.493Z,8.73
2023-01-22T01:05:34.228Z,6.83
2023-01-22T01:07:35.961Z,8.00
2023-01-22T01:09:37.654Z,7.00
2023-01-22T01:11:39.433Z,9.60
2023-01-22T01:13:43.233Z,7.17
2023-01-22T01:15:45.060Z,7.73
2023-01-22T01:17:46.913Z,7.80
2023-01-22T01:19:48.585Z,7.60
2023-01-22T01:21:50.399Z,7.30
2023-01-22T01:23:52.113Z,7.45
2023-01-22T01:25:54.462Z,7.23
2023-01-22T01:27:56.148Z,6.38
2023-01-22T01:29:58.569Z,6.63
2023-01-22T01:32:00.408Z,7.30
2023-01-22T01:34:02.512Z,7.23
2023-01-22T01:36:07.121Z,5.20
2023-01-22T01:38:08.939Z,8.18
2023-01-22T01:40:11.441Z,7.50
2023-01-22T01:42:13.244Z,6.97
2023-01-22T01:44:20.763Z,7.47
2023-01-22T01:46:24.589Z,6.83
2023-01-22T01:48:38.625Z,6.23
2023-01-22T01:50:41.559Z,6.67
2023-01-22T01:52:43.465Z,6.00
2023-01-22T01:54:48.094Z,7.07
2023-01-22T01:56:52.234Z,6.60
2023-01-22T01:58:57.398Z,8.25
2023-01-22T02:01:02.683Z,7.30
2023-01-22T02:03:04.658Z,6.57
2023-01-22T02:05:06.973Z,7.07
2023-01-22T02:07:08.850Z,5.70
2023-01-22T02:09:10.608Z,7.37
2023-01-22T02:11:13.119Z,6.60
2023-01-22T02:13:19.641Z,7.20
2023-01-22T02:15:21.612Z,7.17
2023-01-22T02:17:23.454Z,7.50
2023-01-22T02:19:25.130Z,6.93
2023-01-22T02:21:39.697Z,6.53
2023-01-22T02:23:41.394Z,6.80
2023-01-22T02:25:43.133Z,7.33
2023-01-22T02:27:44.863Z,6.67
2023-01-22T02:29:46.594Z,6.67
2023-01-22T02:31:48.334Z,5.87
2023-01-22T02:33:50.277Z,7.87
2023-01-22T02:35:51.943Z,6.73
2023-01-22T02:37:53.637Z,6.47
2023-01-22T02:39:55.342Z,7.63
2023-01-22T02:41:57.338Z,7.53
2023-01-22T02:43:59.183Z,7.47
2023-01-22T02:46:01.404Z,6.83
2023-01-22T02:48:03.186Z,7.40
2023-01-22T02:50:05.555Z,7.87
2023-01-22T02:52:07.292Z,7.03
2023-01-22T02:54:09.029Z,6.53
2023-01-22T02:56:13.711Z,7.67
2023-01-22T02:58:17.245Z,6.67
2023-01-22T03:00:19.639Z,7.07
2023-01-22T03:02:21.995Z,8.03
2023-01-22T03:04:23.938Z,6.73
2023-01-22T03:06:27.627Z,6.40
2023-01-22T03:08:29.479Z,7.00
2023-01-22T03:10:31.253Z,7.30
2023-01-22T03:12:51.297Z,7.30
2023-01-22T03:15:11.620Z,6.82
2023-01-22T03:17:31.918Z,7.40
2023-01-22T03:19:52.223Z,7.97
2023-01-22T03:21:53.972Z,8.47
2023-01-22T03:23:55.849Z,9.27
2023-01-22T03:25:57.604Z,10.27
2023-01-22T03:28:18.703Z,9.53
2023-01-22T03:30:20.498Z,7.07
2023-01-22T03:32:22.577Z,6.37
2023-01-22T03:34:25.854Z,7.33
2023-01-22T03:36:27.705Z,7.37
2023-01-22T03:38:29.579Z,7.37
2023-01-22T03:40:31.317Z,7.53
2023-01-22T03:42:33.014Z,7.13
2023-01-22T03:44:34.707Z,7.67
2023-01-22T03:46:36.532Z,7.93
2023-01-22T03:48:38.747Z,7.00
2023-01-22T03:50:40.477Z,6.43
2023-01-22T03:52:42.176Z,7.33
2023-01-22T03:54:43.894Z,6.87
2023-01-22T03:56:45.697Z,7.27
2023-01-22T03:58:48.367Z,6.77
2023-01-22T04:00:50.203Z,7.63
2023-01-22T04:02:53.709Z,7.70
2023-01-22T04:04:55.379Z,7.00
2023-01-22T04:06:57.095Z,8.67
2023-01-22T04:08:58.818Z,5.60
2023-01-22T04:11:01.206Z,6.63
2023-01-22T04:13:02.876Z,7.83
2023-01-22T04:15:04.998Z,7.17
2023-01-22T04:17:06.725Z,6.23
2023-01-22T04:19:10.071Z,6.32
2023-01-22T04:21:11.841Z,6.82
2023-01-22T04:23:13.519Z,8.07
2023-01-22T04:25:15.208Z,7.40
2023-01-22T04:27:16.922Z,6.63
2023-01-22T04:29:19.160Z,6.73
2023-01-22T04:31:21.002Z,7.83
2023-01-22T04:33:23.037Z,6.67
2023-01-22T04:35:24.885Z,5.53
2023-01-22T04:37:26.792Z,6.03
2023-01-22T04:39:29.328Z,5.97
2023-01-22T04:41:33.827Z,6.07
2023-01-22T04:43:35.676Z,6.60
2023-01-22T04:45:37.521Z,6.60
2023-01-22T04:47:43.808Z,6.40
2023-01-22T04:49:45.497Z,7.37
2023-01-22T04:51:50.301Z,7.27
2023-01-22T04:53:52.068Z,6.30
2023-01-22T04:55:53.788Z,5.93
2023-01-22T04:57:56.931Z,6.77
2023-01-22T04:59:58.845Z,6.60
2023-01-22T05:02:00.585Z,5.83
2023-01-22T05:04:02.717Z,7.80
2023-01-22T05:06:05.796Z,6.13
2023-01-22T05:08:07.857Z,7.27
2023-01-22T05:10:10.123Z,6.87
2023-01-22T05:12:11.813Z,6.57
2023-01-22T05:14:13.464Z,6.73
2023-01-22T05:16:15.273Z,5.50
2023-01-22T05:18:16.960Z,6.37
2023-01-22T05:20:18.983Z,6.97
2023-01-22T05:22:20.867Z,6.13
2023-01-22T05:24:22.570Z,5.63
2023-01-22T05:26:24.287Z,5.90
2023-01-22T05:28:25.946Z,5.17
2023-01-22T05:30:27.694Z,6.63
2023-01-22T05:32:29.449Z,6.80
2023-01-22T05:34:31.097Z,6.27
2023-01-22T05:36:32.947Z,6.83
2023-01-22T05:38:34.660Z,6.73
2023-01-22T05:40:36.377Z,6.60
2023-01-22T05:42:38.222Z,6.77
2023-01-22T05:44:39.929Z,6.80
2023-01-22T05:46:41.724Z,6.37
2023-01-22T05:48:43.469Z,6.17
2023-01-22T05:50:45.234Z,5.97
2023-01-22T05:52:46.871Z,7.70
2023-01-22T05:54:48.553Z,6.63
2023-01-22T05:56:50.333Z,7.25
2023-01-22T05:58:54.929Z,6.30
2023-01-22T06:00:57.287Z,6.23
2023-01-22T06:03:00.495Z,6.10
2023-01-22T06:05:02.271Z,5.60
2023-01-22T06:07:04.044Z,6.23
2023-01-22T06:09:05.746Z,7.27
2023-01-22T06:11:11.282Z,4.63
2023-01-22T06:13:13.023Z,5.80
2023-01-22T06:15:14.732Z,6.43
2023-01-22T06:17:16.711Z,6.70
2023-01-22T06:19:18.418Z,6.13
2023-01-22T06:21:20.189Z,5.30
2023-01-22T06:23:22.916Z,7.37
2023-01-22T06:25:24.616Z,5.90
2023-01-22T06:27:26.434Z,6.23
2023-01-22T06:29:28.106Z,6.65
2023-01-22T06:31:31.637Z,6.67
2023-01-22T06:33:34.859Z,6.73
2023-01-22T06:35:36.610Z,6.30
2023-01-22T06:37:38.389Z,5.90
2023-01-22T06:39:40.124Z,7.37
2023-01-22T06:41:41.854Z,5.77
2023-01-22T06:43:43.578Z,6.40
2023-01-22T06:45:45.393Z,5.83
2023-01-22T06:47:47.236Z,6.33
2023-01-22T06:49:48.904Z,6.10
2023-01-22T06:51:50.670Z,5.93
2023-01-22T06:53:52.355Z,7.00
2023-01-22T06:55:54.610Z,6.47
2023-01-22T06:57:56.876Z,6.27
2023-01-22T06:59:58.627Z,5.93
2023-01-22T07:02:00.368Z,5.72
2023-01-22T07:04:02.206Z,6.03
2023-01-22T07:06:04.756Z,6.00
2023-01-22T07:08:06.452Z,6.18
2023-01-22T07:10:09.456Z,7.25
2023-01-22T07:12:11.145Z,7.03
2023-01-22T07:14:12.912Z,7.57
2023-01-22T07:16:14.781Z,8.13
2023-01-22T07:18:19.746Z,7.32
2023-01-22T07:20:22.667Z,7.32
2023-01-22T07:22:24.592Z,6.07
2023-01-22T07:24:26.248Z,6.60
2023-01-22T07:26:27.987Z,5.90
2023-01-22T07:28:30.045Z,6.53
2023-01-22T07:30:32.125Z,4.65
2023-01-22T07:32:33.771Z,5.90
2023-01-22T07:34:37.433Z,6.97
2023-01-22T07:36:39.185Z,4.70
2023-01-22T07:38:40.867Z,6.47
2023-01-22T07:40:42.689Z,5.57
2023-01-22T07:42:44.375Z,5.35
2023-01-22T07:44:46.081Z,5.80
2023-01-22T07:46:47.898Z,6.53
2023-01-22T07:48:49.588Z,6.03
2023-01-22T07:50:51.325Z,6.72
2023-01-22T07:52:53.524Z,5.88
2023-01-22T07:54:55.233Z,5.53
2023-01-22T07:56:56.985Z,5.38
2023-01-22T07:58:59.310Z,5.60
2023-01-22T08:01:01.208Z,5.80
2023-01-22T08:03:07.029Z,5.40
2023-01-22T08:05:09.923Z,5.85
2023-01-22T08:07:16.659Z,6.57
2023-01-22T08:09:24.817Z,5.43
2023-01-22T08:11:27.848Z,4.72
2023-01-22T08:13:29.588Z,5.20
2023-01-22T08:15:32.648Z,5.43
2023-01-22T08:17:34.586Z,5.87
2023-01-22T08:19:36.389Z,5.35
2023-01-22T08:21:38.153Z,5.18
2023-01-22T08:23:39.854Z,3.95
2023-01-22T08:25:41.647Z,4.93
2023-01-22T08:27:43.734Z,5.43
2023-01-22T08:29:45.564Z,4.27
2023-01-22T08:31:47.409Z,5.57
2023-01-22T08:33:49.201Z,8.90
2023-01-22T08:35:51.488Z,8.70
2023-01-22T08:37:53.146Z,7.97
2023-01-22T08:39:54.844Z,8.53
2023-01-22T08:41:57.874Z,10.00
2023-01-22T08:43:59.639Z,8.37
2023-01-22T08:46:01.347Z,8.60
2023-01-22T08:48:03.142Z,8.20
2023-01-22T08:50:05.225Z,7.50
2023-01-22T08:52:07.180Z,5.23
2023-01-22T08:54:08.898Z,5.87
2023-01-22T08:56:10.749Z,5.33
2023-01-22T08:58:12.616Z,5.67
2023-01-22T09:00:14.978Z,4.80
2023-01-22T09:02:16.868Z,3.63
2023-01-22T09:04:19.902Z,4.55
2023-01-22T09:06:23.313Z,4.63
2023-01-22T09:08:25.373Z,4.47
2023-01-22T09:10:27.179Z,3.30
2023-01-22T09:12:28.972Z,5.25
2023-01-22T09:14:31.761Z,5.55
2023-01-22T09:16:33.898Z,4.70
2023-01-22T09:18:35.579Z,4.97
2023-01-22T09:20:37.256Z,5.33
2023-01-22T09:22:38.945Z,5.05
2023-01-22T09:24:40.635Z,5.60
2023-01-22T09:26:42.810Z,4.38
2023-01-22T09:28:44.443Z,3.55
2023-01-22T09:30:46.555Z,3.63
2023-01-22T09:32:48.250Z,4.05
2023-01-22T09:34:49.905Z,5.05
2023-01-22T09:36:51.681Z,6.05
2023-01-22T09:38:53.516Z,4.50
2023-01-22T09:41:02.147Z,5.32
2023-01-22T09:43:25.139Z,6.18
2023-01-22T09:45:27.178Z,7.50
2023-01-22T09:47:37.050Z,6.95
2023-01-22T09:49:46.837Z,5.88
2023-01-22T09:51:55.137Z,4.50
2023-01-22T09:53:59.570Z,4.20
2023-01-22T09:56:04.419Z,6.30
2023-01-22T09:58:13.631Z,4.90
2023-01-22T10:00:20.146Z,4.50
2023-01-22T10:02:51.353Z,3.90
2023-01-22T10:04:58.149Z,3.37
2023-01-22T10:07:01.304Z,5.30
2023-01-22T10:09:12.464Z,4.10
2023-01-22T10:11:14.216Z,3.90
2023-01-22T10:13:15.978Z,4.43
2023-01-22T10:15:23.262Z,4.97
2023-01-22T10:17:32.208Z,4.17
2023-01-22T10:19:40.514Z,4.13
2023-01-22T10:21:48.190Z,4.20
2023-01-22T10:23:50.440Z,3.33
2023-01-22T10:26:04.790Z,3.87
2023-01-22T10:28:06.624Z,3.67
2023-01-22T10:30:20.555Z,3.45
2023-01-22T10:32:27.991Z,4.60
2023-01-22T10:34:35.984Z,3.97
2023-01-22T10:36:37.824Z,3.80
2023-01-22T10:38:39.535Z,4.15
2023-01-22T10:40:41.257Z,3.40
2023-01-22T10:42:42.979Z,2.80
2023-01-22T10:44:45.009Z,3.60
2023-01-22T10:46:49.220Z,2.97
2023-01-22T10:49:01.036Z,3.63
2023-01-22T10:51:13.567Z,3.50
2023-01-22T10:53:20.046Z,3.38
2023-01-22T10:55:28.592Z,3.70
2023-01-22T10:57:34.492Z,3.67
2023-01-22T10:59:36.965Z,3.50
2023-01-22T11:01:39.885Z,3.75
2023-01-22T11:03:41.580Z,3.53
2023-01-22T11:05:44.518Z,5.30
2023-01-22T11:07:48.965Z,2.85
2023-01-22T11:09:56.679Z,3.58
2023-01-22T11:12:04.749Z,4.78
2023-01-22T11:14:20.686Z,3.22
2023-01-22T11:16:24.428Z,3.88
2023-01-22T11:18:32.560Z,3.53
2023-01-22T11:20:45.906Z,3.92
2023-01-22T11:23:12.241Z,3.80
2023-01-22T11:25:14.005Z,3.60
2023-01-22T11:27:21.919Z,4.85
2023-01-22T11:29:39.097Z,3.15
2023-01-22T11:32:10.023Z,3.22
2023-01-22T11:34:23.549Z,3.95
2023-01-22T11:36:35.187Z,3.20
2023-01-22T11:38:51.690Z,4.63
2023-01-22T11:40:53.319Z,3.92
2023-01-22T11:43:13.185Z,3.78
2023-01-22T11:45:35.831Z,4.03
2023-01-22T11:47:56.481Z,3.78
2023-01-22T11:50:02.709Z,3.35
2023-01-22T11:52:33.438Z,3.35
2023-01-22T11:54:44.959Z,4.00
2023-01-22T11:57:16.057Z,3.20
2023-01-22T11:59:32.959Z,3.97
2023-01-22T12:01:45.751Z,3.58
2023-01-22T12:03:53.289Z,2.95
2023-01-22T12:06:13.940Z,2.55
2023-01-22T12:08:20.814Z,3.33
2023-01-22T12:10:41.081Z,3.47
2023-01-22T12:12:50.825Z,4.75
2023-01-22T12:15:14.745Z,3.40
2023-01-22T12:17:51.832Z,2.50
2023-01-22T12:20:14.853Z,3.72
2023-01-22T12:22:30.611Z,2.65
2023-01-22T12:25:00.330Z,3.10
2023-01-22T12:27:05.828Z,3.30
2023-01-22T12:29:16.628Z,3.75
2023-01-22T12:31:36.392Z,2.75
2023-01-22T12:33:41.844Z,3.60
2023-01-22T12:35:43.716Z,3.10
2023-01-22T12:37:50.325Z,3.47
2023-01-22T12:40:23.165Z,3.13
2023-01-22T12:42:33.131Z,2.80
2023-01-22T12:44:40.693Z,2.90
2023-01-22T12:46:59.659Z,2.53
2023-01-22T12:49:11.035Z,3.67
2023-01-22T12:51:35.787Z,2.80
2023-01-22T12:53:39.420Z,2.40
2023-01-22T12:55:44.302Z,2.28
2023-01-22T12:57:46.097Z,2.75
2023-01-22T12:59:49.976Z,2.70
2023-01-22T13:02:04.185Z,3.15
2023-01-22T13:04:07.749Z,3.20
2023-01-22T13:06:33.310Z,2.70
2023-01-22T13:08:42.745Z,3.20
2023-01-22T13:10:59.240Z,2.15
2023-01-22T13:13:20.879Z,3.35
2023-01-22T13:15:25.527Z,3.25
2023-01-22T13:17:30.543Z,3.47
2023-01-22T13:19:44.938Z,3.55
2023-01-22T13:21:47.547Z,3.72
2023-01-22T13:23:49.723Z,3.22
2023-01-22T13:25:55.773Z,4.07
2023-01-22T13:27:58.212Z,3.15
2023-01-22T13:30:27.121Z,2.75
2023-01-22T13:32:30.796Z,3.15
2023-01-22T13:34:32.729Z,3.83
2023-01-22T13:36:37.722Z,3.63
2023-01-22T13:38:39.454Z,4.15
2023-01-22T13:40:51.084Z,4.47
2023-01-22T13:42:53.876Z,3.55
2023-01-22T13:44:55.537Z,4.18
2023-01-22T13:46:57.429Z,4.18
2023-01-22T13:49:01.669Z,3.45
2023-01-22T13:51:06.414Z,3.88
2023-01-22T13:53:11.598Z,4.00
2023-01-22T13:55:20.364Z,2.67
2023-01-22T13:57:22.641Z,4.03
2023-01-22T13:59:27.701Z,3.35
2023-01-22T14:01:32.522Z,2.95
2023-01-22T14:03:34.610Z,3.50
2023-01-22T14:05:36.530Z,3.85
2023-01-22T14:07:38.977Z,4.95
2023-01-22T14:09:40.755Z,4.22
2023-01-22T14:11:42.464Z,4.57
2023-01-22T14:13:45.969Z,4.57
2023-01-22T14:15:56.562Z,4.05
2023-01-22T14:18:14.701Z,3.80
2023-01-22T14:20:16.655Z,3.70
2023-01-22T14:22:18.691Z,3.67
2023-01-22T14:24:20.407Z,3.00
2023-01-22T14:26:22.204Z,3.58
2023-01-22T14:28:24.779Z,3.60
2023-01-22T14:30:26.647Z,3.30
2023-01-22T14:32:28.391Z,3.53
2023-01-22T14:34:30.084Z,3.58
2023-01-22T14:36:31.791Z,3.90
2023-01-22T14:38:33.487Z,2.88
2023-01-22T14:40:35.166Z,3.13
2023-01-22T14:42:36.845Z,3.78
2023-01-22T14:44:41.737Z,3.45
2023-01-22T14:46:43.548Z,3.42
2023-01-22T14:48:45.241Z,3.63
2023-01-22T14:50:48.007Z,3.67
2023-01-22T14:52:51.556Z,3.58
2023-01-22T14:54:55.209Z,3.90
2023-01-22T14:56:58.357Z,2.90
2023-01-22T14:59:00.094Z,3.88
2023-01-22T15:01:02.290Z,3.25
2023-01-22T15:03:04.320Z,3.53
2023-01-22T15:05:06.769Z,2.75
2023-01-22T15:07:08.662Z,3.97
2023-01-22T15:09:11.127Z,3.90
2023-01-22T15:11:12.833Z,4.35
2023-01-22T15:13:14.824Z,3.72
2023-01-22T15:15:18.875Z,4.20
2023-01-22T15:17:21.812Z,4.60
2023-01-22T15:19:23.600Z,3.38
2023-01-22T15:21:25.290Z,3.67
2023-01-22T15:23:27.030Z,3.88
2023-01-22T15:25:28.745Z,3.30
2023-01-22T15:27:30.441Z,3.13
2023-01-22T15:29:32.123Z,3.90
2023-01-22T15:31:34.632Z,3.30
2023-01-22T15:33:37.487Z,3.20
2023-01-22T15:35:39.160Z,4.20
2023-01-22T15:37:40.806Z,3.45
2023-01-22T15:39:42.593Z,6.40
2023-01-22T15:41:45.546Z,4.28
2023-01-22T15:43:50.863Z,4.57
2023-01-22T15:45:52.687Z,4.68
2023-01-22T15:47:54.695Z,4.18
2023-01-22T15:49:56.348Z,3.20
2023-01-22T15:51:58.201Z,3.92
2023-01-22T15:54:02.219Z,3.95
2023-01-22T15:56:04.494Z,4.05
2023-01-22T15:58:06.142Z,4.35
2023-01-22T16:00:11.121Z,4.18
2023-01-22T16:02:13.140Z,4.43
2023-01-22T16:04:14.831Z,5.85
2023-01-22T16:06:30.353Z,7.97
2023-01-22T16:08:31.960Z,8.90
2023-01-22T16:10:33.659Z,8.77
2023-01-22T16:12:35.263Z,7.45
2023-01-22T16:14:37.003Z,5.13
2023-01-22T16:16:39.058Z,5.68
2023-01-22T16:18:41.227Z,5.95
2023-01-22T16:20:42.862Z,5.00
2023-01-22T16:22:46.084Z,4.15
2023-01-22T16:24:47.797Z,4.05
2023-01-22T16:26:49.728Z,4.10
2023-01-22T16:28:52.962Z,5.45
2023-01-22T16:30:54.748Z,5.22
2023-01-22T16:32:56.479Z,4.45
2023-01-22T16:34:58.136Z,3.63
2023-01-22T16:36:59.939Z,4.63
2023-01-22T16:39:01.928Z,4.28
2023-01-22T16:41:24.419Z,4.53
2023-01-22T16:43:26.825Z,3.67
2023-01-22T16:45:28.688Z,4.10
2023-01-22T16:47:30.405Z,5.35
2023-01-22T16:49:33.756Z,5.13
2023-01-22T16:51:39.171Z,4.78
2023-01-22T16:53:40.795Z,4.60
2023-01-22T16:55:42.473Z,5.30
2023-01-22T16:57:44.185Z,4.90
2023-01-22T16:59:46.261Z,4.28
2023-01-22T17:01:48.101Z,4.88
2023-01-22T17:03:55.419Z,4.60
2023-01-22T17:05:57.500Z,5.70
2023-01-22T17:07:59.121Z,5.45
2023-01-22T17:10:01.013Z,5.05
2023-01-22T17:12:05.556Z,5.38
2023-01-22T17:14:07.995Z,6.18
2023-01-22T17:16:10.770Z,5.47
2023-01-22T17:18:12.707Z,5.95
2023-01-22T17:20:14.468Z,6.15
2023-01-22T17:22:16.234Z,6.60
2023-01-22T17:24:18.301Z,6.70
2023-01-22T17:26:21.323Z,5.10
2023-01-22T17:28:23.003Z,5.25
2023-01-22T17:30:24.674Z,5.55
2023-01-22T17:32:26.691Z,6.80
2023-01-22T17:34:28.520Z,5.50
2023-01-22T17:36:31.027Z,5.68
2023-01-22T17:38:36.415Z,5.38
2023-01-22T17:40:39.236Z,6.00
2023-01-22T17:42:40.899Z,6.80
2023-01-22T17:44:42.542Z,5.60
2023-01-22T17:46:44.349Z,6.00
2023-01-22T17:48:47.339Z,6.85
2023-01-22T17:50:50.007Z,5.53
2023-01-22T17:52:52.115Z,5.00
2023-01-22T17:54:53.825Z,4.93
2023-01-22T17:56:55.534Z,5.38
2023-01-22T17:58:59.686Z,5.30
2023-01-22T18:01:06.053Z,5.97
2023-01-22T18:03:07.729Z,5.28
2023-01-22T18:05:15.630Z,6.55
2023-01-22T18:07:18.267Z,6.40
2023-01-22T18:09:21.564Z,5.25
2023-01-22T18:11:27.758Z,6.38
2023-01-22T18:13:29.528Z,7.07
2023-01-22T18:15:31.187Z,9.38
2023-01-22T18:17:32.888Z,9.05
2023-01-22T18:19:34.563Z,9.18
2023-01-22T18:21:37.991Z,8.23
2023-01-22T18:23:39.697Z,9.75
2023-01-22T18:25:50.491Z,7.90
2023-01-22T18:27:52.245Z,7.13
2023-01-22T18:29:53.944Z,6.53
2023-01-22T18:31:55.745Z,6.30
2023-01-22T18:34:01.418Z,6.00
2023-01-22T18:36:06.754Z,8.38
2023-01-22T18:38:08.556Z,8.75
2023-01-22T18:40:10.866Z,7.20
2023-01-22T18:42:12.542Z,9.30
2023-01-22T18:44:16.308Z,8.35
2023-01-22T18:46:18.511Z,8.25
2023-01-22T18:48:21.529Z,7.13
2023-01-22T18:50:23.237Z,5.60
2023-01-22T18:52:25.608Z,6.28
2023-01-22T18:54:28.929Z,6.35
2023-01-22T18:56:31.150Z,6.70
2023-01-22T18:58:36.184Z,7.00
2023-01-22T19:00:37.901Z,6.35
2023-01-22T19:02:39.600Z,5.30
2023-01-22T19:04:41.259Z,6.32
2023-01-22T19:06:44.530Z,5.57
2023-01-22T19:08:48.916Z,7.28
2023-01-22T19:10:50.661Z,6.28
2023-01-22T19:12:52.362Z,7.03
2023-01-22T19:14:54.078Z,7.72
2023-01-22T19:16:55.854Z,6.93
2023-01-22T19:19:03.878Z,6.22
2023-01-22T19:21:07.640Z,6.72
2023-01-22T19:23:09.392Z,6.05
2023-01-22T19:25:11.156Z,6.35
2023-01-22T19:27:12.862Z,6.38
2023-01-22T19:29:17.599Z,7.18
2023-01-22T19:31:22.720Z,6.78
2023-01-22T19:33:27.809Z,7.15
2023-01-22T19:35:29.645Z,5.63
2023-01-22T19:37:32.624Z,7.75
2023-01-22T19:39:34.829Z,6.68
2023-01-22T19:41:37.704Z,6.88
2023-01-22T19:43:39.421Z,7.30
2023-01-22T19:45:41.087Z,6.50
2023-01-22T19:47:42.928Z,7.28
2023-01-22T19:49:44.746Z,4.97
2023-01-22T19:51:46.699Z,6.63
2023-01-22T19:53:48.924Z,5.68
2023-01-22T19:55:50.607Z,6.10
2023-01-22T19:57:56.403Z,5.60
2023-01-22T19:59:59.181Z,6.07
2023-01-22T20:02:00.938Z,6.25
2023-01-22T20:04:04.009Z,5.30
2023-01-22T20:06:07.631Z,5.57
2023-01-22T20:08:09.471Z,5.07
2023-01-22T20:10:14.106Z,5.97
2023-01-22T20:12:15.797Z,5.15
2023-01-22T20:14:17.499Z,6.32
2023-01-22T20:16:24.987Z,5.70
2023-01-22T20:18:28.105Z,6.60
2023-01-22T20:20:29.882Z,8.82
2023-01-22T20:22:32.049Z,7.35
2023-01-22T20:24:34.801Z,7.72
2023-01-22T20:26:36.576Z,5.70
2023-01-22T20:28:39.610Z,5.80
2023-01-22T20:30:41.434Z,5.97
2023-01-22T20:32:43.302Z,5.40
2023-01-22T20:34:48.903Z,6.97
2023-01-22T20:36:50.714Z,6.28
2023-01-22T20:38:53.051Z,5.93
2023-01-22T20:40:54.871Z,5.75
2023-01-22T20:42:56.601Z,6.20
2023-01-22T20:44:58.471Z,5.18
2023-01-22T20:47:01.615Z,5.75
2023-01-22T20:49:03.428Z,6.45
2023-01-22T20:51:05.623Z,5.88
2023-01-22T20:53:07.635Z,5.55
2023-01-22T20:55:10.472Z,6.13
2023-01-22T20:57:12.175Z,6.10
2023-01-22T20:59:17.369Z,5.15
2023-01-22T21:01:19.397Z,5.93
2023-01-22T21:03:21.650Z,5.43
2023-01-22T21:05:23.395Z,6.20
2023-01-22T21:07:25.157Z,6.25
2023-01-22T21:09:28.130Z,6.15
2023-01-22T21:11:32.166Z,5.80
2023-01-22T21:13:33.829Z,6.22
2023-01-22T21:15:36.894Z,6.07
2023-01-22T21:17:38.635Z,5.50
2023-01-22T21:19:40.687Z,5.50
2023-01-22T21:21:43.322Z,5.63
2023-01-22T21:23:47.476Z,5.68
2023-01-22T21:25:49.146Z,6.15
2023-01-22T21:27:51.250Z,6.82
2023-01-22T21:29:52.988Z,6.68
2023-01-22T21:31:54.856Z,6.18
2023-01-22T21:34:02.648Z,4.97
2023-01-22T21:36:06.278Z,5.65
2023-01-22T21:38:08.004Z,5.72
2023-01-22T21:40:13.309Z,6.00
2023-01-22T21:42:33.543Z,5.70
2023-01-22T21:44:53.802Z,5.75
2023-01-22T21:46:55.471Z,5.70
2023-01-22T21:48:59.059Z,4.70
2023-01-22T21:51:02.500Z,5.30
2023-01-22T21:53:04.182Z,6.22
2023-01-22T21:55:06.930Z,5.72
2023-01-22T21:57:11.979Z,3.83
2023-01-22T21:59:14.169Z,5.88
2023-01-22T22:01:20.859Z,5.03
2023-01-22T22:03:22.625Z,5.88
2023-01-22T22:05:25.091Z,5.63
2023-01-22T22:07:26.809Z,5.80
2023-01-22T22:09:29.581Z,5.75
2023-01-22T22:11:31.377Z,5.65
2023-01-22T22:13:35.182Z,4.65
2023-01-22T22:15:36.820Z,5.72
2023-01-22T22:17:39.046Z,5.25
2023-01-22T22:19:40.718Z,5.63
2023-01-22T22:21:42.561Z,7.47
2023-01-22T22:23:44.415Z,6.57
2023-01-22T22:25:49.123Z,5.75
2023-01-22T22:27:50.885Z,6.00
2023-01-22T22:29:53.583Z,5.60
2023-01-22T22:31:55.716Z,5.13
2023-01-22T22:33:57.661Z,5.70
2023-01-22T22:36:01.456Z,4.82
2023-01-22T22:38:03.296Z,6.10
2023-01-22T22:40:05.510Z,6.13
2023-01-22T22:42:07.367Z,5.20
2023-01-22T22:44:10.418Z,5.53
2023-01-22T22:46:17.922Z,5.55
2023-01-22T22:48:19.837Z,4.80
2023-01-22T22:50:21.774Z,4.93
2023-01-22T22:52:23.713Z,4.30
2023-01-22T22:54:25.487Z,5.47
2023-01-22T22:56:28.362Z,5.25
2023-01-22T22:58:30.054Z,4.68
2023-01-22T23:00:31.755Z,5.28
2023-01-22T23:02:33.464Z,5.15
2023-01-22T23:04:36.133Z,4.40
2023-01-22T23:06:38.015Z,5.53
2023-01-22T23:08:41.443Z,5.80
2023-01-22T23:10:43.132Z,4.32
2023-01-22T23:12:44.924Z,4.75
2023-01-22T23:14:46.656Z,4.90
2023-01-22T23:16:49.116Z,5.20
2023-01-22T23:18:52.010Z,5.10
2023-01-22T23:20:53.695Z,5.43
2023-01-22T23:22:57.386Z,6.25
2023-01-22T23:24:59.047Z,6.20
2023-01-22T23:27:00.814Z,5.38
2023-01-22T23:29:04.797Z,6.47
2023-01-22T23:31:09.370Z,5.63
2023-01-22T23:33:11.062Z,5.45
2023-01-22T23:35:12.825Z,4.60
2023-01-22T23:37:14.549Z,5.68
2023-01-22T23:39:18.911Z,6.13
2023-01-22T23:41:20.898Z,5.22
2023-01-22T23:43:22.534Z,5.45
2023-01-22T23:45:24.232Z,5.32
2023-01-22T23:47:27.313Z,6.72
2023-01-22T23:49:29.001Z,5.22
2023-01-22T23:51:31.022Z,5.43
2023-01-22T23:53:36.170Z,6.23
2023-01-22T23:55:37.895Z,5.85
2023-01-22T23:57:39.971Z,5.80
2023-01-22T23:59:41.673Z,6.03
